createdAt,value
2018-03-06T00:02:16.680Z,426.63
2018-03-06T00:04:45.956Z,462.02
2018-03-06T00:07:14.347Z,487.30
2018-03-06T00:09:42.754Z,466.25
2018-03-06T00:12:12.045Z,466.62
2018-03-06T00:14:41.242Z,434.30
2018-03-06T00:17:09.710Z,457.48
2018-03-06T00:19:39.325Z,462.27
2018-03-06T00:22:07.725Z,481.77
2018-03-06T00:24:36.147Z,447.13
2018-03-06T00:27:05.499Z,443.58
2018-03-06T00:29:34.236Z,437.08
2018-03-06T00:32:02.655Z,425.00
2018-03-06T00:34:31.788Z,404.80
2018-03-06T00:37:00.227Z,411.92
2018-03-06T00:39:28.632Z,430.45
2018-03-06T00:41:57.863Z,410.95
2018-03-06T00:44:26.318Z,435.87
2018-03-06T00:46:56.092Z,417.92
2018-03-06T00:49:25.262Z,446.95
2018-03-06T00:51:53.707Z,418.85
2018-03-06T00:54:22.116Z,415.80
2018-03-06T00:56:51.470Z,438.63
2018-03-06T00:59:19.870Z,428.15
2018-03-06T01:01:48.298Z,409.15
2018-03-06T01:04:18.462Z,438.87
2018-03-06T01:06:46.910Z,450.75
2018-03-06T01:09:15.324Z,430.85
2018-03-06T01:11:44.690Z,447.48
2018-03-06T01:14:13.892Z,447.30
2018-03-06T01:16:42.318Z,460.13
2018-03-06T01:19:11.120Z,434.77
2018-03-06T01:21:39.534Z,482.48
2018-03-06T01:24:07.944Z,476.25
2018-03-06T01:26:38.271Z,484.50
2018-03-06T01:29:06.687Z,502.52
2018-03-06T01:31:35.899Z,494.25
2018-03-06T01:34:05.401Z,476.10
2018-03-06T01:36:33.814Z,473.05
2018-03-06T01:39:02.257Z,500.92
2018-03-06T01:41:31.436Z,509.40
2018-03-06T01:43:59.838Z,515.05
2018-03-06T01:46:28.326Z,521.22
2018-03-06T01:48:57.916Z,497.25
2018-03-06T01:51:27.120Z,508.60
2018-03-06T01:53:56.311Z,526.70
2018-03-06T01:56:25.655Z,518.35
2018-03-06T01:58:54.844Z,514.75
2018-03-06T02:01:24.019Z,497.83
2018-03-06T02:03:53.786Z,495.42
2018-03-06T02:06:22.245Z,449.77
2018-03-06T02:08:51.424Z,467.73
2018-03-06T02:11:20.203Z,485.55
2018-03-06T02:13:48.653Z,483.10
2018-03-06T02:16:17.111Z,448.90
2018-03-06T02:18:47.025Z,462.50
2018-03-06T02:21:15.580Z,462.45
2018-03-06T02:23:44.001Z,457.30
2018-03-06T02:26:12.925Z,469.13
2018-03-06T02:28:41.334Z,476.50
2018-03-06T02:31:09.739Z,489.98
2018-03-06T02:33:39.507Z,472.02
2018-03-06T02:36:07.946Z,479.02
2018-03-06T02:38:37.127Z,447.33
2018-03-06T02:41:06.272Z,461.85
2018-03-06T02:43:35.479Z,462.52
2018-03-06T02:46:12.037Z,451.17
2018-03-06T02:48:40.464Z,448.30
2018-03-06T02:51:09.499Z,440.30
2018-03-06T02:53:39.169Z,453.62
2018-03-06T02:56:07.599Z,440.00
2018-03-06T02:58:36.039Z,481.58
2018-03-06T03:01:07.964Z,458.90
2018-03-06T03:03:37.177Z,489.58
2018-03-06T03:06:07.110Z,497.13
2018-03-06T03:08:35.515Z,429.77
2018-03-06T03:11:03.911Z,430.05
2018-03-06T03:13:37.493Z,434.30
2018-03-06T03:16:07.047Z,422.48
2018-03-06T03:18:36.564Z,446.60
2018-03-06T03:21:04.995Z,431.08
2018-03-06T03:23:33.410Z,398.70
2018-03-06T03:26:03.131Z,387.08
2018-03-06T03:28:32.313Z,413.27
2018-03-06T03:31:00.745Z,385.67
2018-03-06T03:33:29.931Z,368.98
2018-03-06T03:35:59.116Z,359.70
2018-03-06T03:38:27.592Z,363.62
2018-03-06T03:40:56.378Z,378.92
2018-03-06T03:43:25.604Z,376.83
2018-03-06T03:45:54.809Z,382.55
2018-03-06T03:48:24.441Z,401.55
2018-03-06T03:50:52.882Z,436.98
2018-03-06T03:53:22.300Z,402.52
2018-03-06T03:55:51.635Z,428.62
2018-03-06T03:58:20.099Z,432.70
2018-03-06T04:00:48.660Z,443.95
2018-03-06T04:03:17.620Z,422.77
2018-03-06T04:05:46.767Z,377.67
2018-03-06T04:08:15.961Z,385.02
2018-03-06T04:10:45.607Z,393.90
2018-03-06T04:13:14.837Z,377.92
2018-03-06T04:15:44.015Z,396.63
2018-03-06T04:18:14.233Z,382.70
2018-03-06T04:20:42.713Z,336.62
2018-03-06T04:23:11.945Z,349.55
2018-03-06T04:25:41.564Z,379.23
2018-03-06T04:28:09.986Z,362.60
2018-03-06T04:30:38.394Z,349.92
2018-03-06T04:33:07.530Z,352.17
2018-03-06T04:35:36.695Z,357.70
2018-03-06T04:38:05.103Z,322.42
2018-03-06T04:40:35.118Z,327.40
2018-03-06T04:43:04.316Z,297.20
2018-03-06T04:45:32.760Z,301.25
2018-03-06T04:48:02.152Z,325.75
2018-03-06T04:50:30.587Z,288.65
2018-03-06T04:52:59.009Z,289.05
2018-03-06T04:55:28.858Z,294.35
2018-03-06T04:57:57.283Z,242.25
2018-03-06T05:00:25.699Z,291.90
2018-03-06T05:02:54.559Z,258.83
2018-03-06T05:05:23.769Z,254.87
2018-03-06T05:07:52.932Z,265.62
2018-03-06T05:10:22.266Z,269.92
2018-03-06T05:12:51.451Z,258.42
2018-03-06T05:15:19.876Z,314.08
2018-03-06T05:17:49.521Z,258.92
2018-03-06T05:20:17.944Z,293.33
2018-03-06T05:22:47.171Z,252.75
2018-03-06T05:25:16.427Z,265.95
2018-03-06T05:27:44.835Z,274.10
2018-03-06T05:30:14.091Z,272.55
2018-03-06T05:32:42.890Z,275.08
2018-03-06T05:35:12.122Z,282.23
2018-03-06T05:37:40.553Z,277.23
2018-03-06T05:40:09.823Z,263.42
2018-03-06T05:42:38.218Z,323.50
2018-03-06T05:45:06.739Z,301.75
2018-03-06T05:47:35.663Z,289.83
2018-03-06T05:50:04.058Z,281.75
2018-03-06T05:52:32.470Z,280.00
2018-03-06T05:55:02.414Z,273.02
2018-03-06T05:57:31.332Z,266.77
2018-03-06T06:00:00.546Z,281.30
2018-03-06T06:02:29.778Z,267.85
2018-03-06T06:04:58.957Z,244.07
2018-03-06T06:07:27.354Z,261.55
2018-03-06T06:09:56.674Z,268.20
2018-03-06T06:12:25.101Z,250.50
2018-03-06T06:14:53.480Z,246.00
2018-03-06T06:17:23.692Z,248.10
2018-03-06T06:19:52.845Z,242.45
2018-03-06T06:22:21.240Z,262.75
2018-03-06T06:24:50.968Z,262.73
2018-03-06T06:27:19.376Z,245.50
2018-03-06T06:29:48.523Z,263.67
2018-03-06T06:32:17.692Z,238.98
2018-03-06T06:34:46.124Z,244.52
2018-03-06T06:37:14.517Z,264.65
2018-03-06T06:39:44.092Z,229.32
2018-03-06T06:42:12.475Z,232.10
2018-03-06T06:44:41.715Z,230.43
2018-03-06T06:47:12.323Z,229.60
2018-03-06T06:49:40.742Z,224.32
2018-03-06T06:52:09.916Z,214.12
2018-03-06T06:54:38.728Z,207.57
2018-03-06T06:57:07.125Z,249.37
2018-03-06T06:59:37.142Z,213.18
2018-03-06T07:02:06.210Z,225.82
2018-03-06T07:04:34.568Z,214.82
2018-03-06T07:07:02.936Z,204.80
2018-03-06T07:09:32.901Z,222.23
2018-03-06T07:12:01.289Z,216.07
2018-03-06T07:14:29.780Z,189.27
2018-03-06T07:16:59.411Z,192.90
2018-03-06T07:19:28.582Z,189.27
2018-03-06T07:21:57.792Z,203.20
2018-03-06T07:24:26.191Z,197.65
2018-03-06T07:26:55.779Z,212.38
2018-03-06T07:29:24.144Z,238.02
2018-03-06T07:31:52.491Z,219.50
2018-03-06T07:34:21.965Z,213.87
2018-03-06T07:36:51.125Z,198.02
2018-03-06T07:39:19.500Z,219.25
2018-03-06T07:41:48.334Z,207.32
2018-03-06T07:44:16.715Z,217.45
2018-03-06T07:46:45.100Z,200.68
2018-03-06T07:49:14.199Z,229.82
2018-03-06T07:51:43.324Z,215.30
2018-03-06T07:54:11.721Z,224.18
2018-03-06T07:56:40.924Z,240.02
2018-03-06T07:59:10.056Z,210.10
2018-03-06T08:01:39.165Z,188.80
2018-03-06T08:04:08.369Z,214.32
2018-03-06T08:06:36.739Z,178.12
2018-03-06T08:09:05.152Z,187.50
2018-03-06T08:11:35.768Z,186.88
2018-03-06T08:14:04.455Z,181.40
2018-03-06T08:16:32.812Z,186.20
2018-03-06T08:19:02.864Z,193.20
2018-03-06T08:21:31.234Z,194.95
2018-03-06T08:23:59.624Z,177.80
2018-03-06T08:26:28.950Z,185.25
2018-03-06T08:28:57.311Z,174.38
2018-03-06T08:31:25.684Z,165.52
2018-03-06T08:33:54.720Z,171.75
2018-03-06T08:36:23.098Z,188.00
2018-03-06T08:38:52.230Z,185.90
2018-03-06T08:41:21.746Z,190.30
2018-03-06T08:43:50.143Z,198.25
2018-03-06T08:46:18.539Z,172.02
2018-03-06T08:48:47.972Z,182.20
2018-03-06T08:51:17.119Z,167.80
2018-03-06T08:53:46.249Z,164.55
2018-03-06T08:56:15.809Z,177.23
2018-03-06T08:58:44.188Z,180.48
2018-03-06T09:01:12.550Z,171.30
2018-03-06T09:03:42.582Z,199.07
2018-03-06T09:06:10.953Z,164.98
2018-03-06T09:08:39.369Z,188.87
2018-03-06T09:11:09.994Z,174.15
2018-03-06T09:13:38.373Z,184.15
2018-03-06T09:16:06.742Z,185.25
2018-03-06T09:18:36.023Z,181.87
2018-03-06T09:21:04.395Z,159.80
2018-03-06T09:23:32.774Z,176.93
2018-03-06T09:26:02.729Z,162.68
2018-03-06T09:28:31.116Z,169.10
2018-03-06T09:30:59.514Z,171.68
2018-03-06T09:33:28.718Z,169.55
2018-03-06T09:35:57.104Z,159.40
2018-03-06T09:38:25.493Z,163.45
2018-03-06T09:40:54.739Z,182.05
2018-03-06T09:43:23.120Z,158.57
2018-03-06T09:45:51.508Z,157.45
2018-03-06T09:48:21.569Z,155.77
2018-03-06T09:50:49.979Z,158.00
2018-03-06T09:53:18.403Z,151.02
2018-03-06T09:55:47.569Z,154.73
2018-03-06T09:58:16.718Z,154.38
2018-03-06T10:00:45.108Z,160.00
2018-03-06T10:03:14.319Z,154.80
2018-03-06T10:05:43.504Z,153.70
2018-03-06T10:08:11.911Z,148.45
2018-03-06T10:10:41.419Z,155.37
2018-03-06T10:13:09.826Z,141.43
2018-03-06T10:15:38.980Z,145.97
2018-03-06T10:18:08.008Z,148.00
2018-03-06T10:20:37.152Z,142.87
2018-03-06T10:23:06.296Z,148.57
2018-03-06T10:25:35.518Z,140.30
2018-03-06T10:28:03.909Z,131.33
2018-03-06T10:30:32.333Z,142.23
2018-03-06T10:33:02.607Z,131.50
2018-03-06T10:35:30.979Z,130.93
2018-03-06T10:37:59.364Z,130.60
2018-03-06T10:40:28.656Z,143.33
2018-03-06T10:42:57.024Z,132.20
2018-03-06T10:45:25.402Z,138.05
2018-03-06T10:47:54.847Z,136.02
2018-03-06T10:50:23.206Z,131.93
2018-03-06T10:52:51.565Z,121.53
2018-03-06T10:55:21.515Z,119.67
2018-03-06T10:57:49.926Z,122.87
2018-03-06T11:00:24.849Z,121.30
2018-03-06T11:02:53.262Z,130.20
2018-03-06T11:05:21.624Z,127.30
2018-03-06T11:07:52.325Z,120.90
2018-03-06T11:10:20.724Z,119.60
2018-03-06T11:12:49.861Z,124.18
2018-03-06T11:15:19.429Z,130.93
2018-03-06T11:17:47.838Z,119.40
2018-03-06T11:20:16.212Z,117.53
2018-03-06T11:22:45.513Z,122.87
2018-03-06T11:25:13.873Z,125.00
2018-03-06T11:27:42.256Z,120.90
2018-03-06T11:30:11.075Z,118.60
2018-03-06T11:32:40.215Z,117.03
2018-03-06T11:35:09.361Z,105.80
2018-03-06T11:37:38.881Z,106.40
2018-03-06T11:40:07.251Z,121.63
2018-03-06T11:42:35.648Z,103.47
2018-03-06T11:45:04.882Z,104.57
2018-03-06T11:47:33.237Z,106.30
2018-03-06T11:50:01.585Z,100.63
2018-03-06T11:52:30.812Z,98.70
2018-03-06T11:54:59.219Z,104.10
2018-03-06T11:57:28.364Z,90.53
2018-03-06T11:59:57.925Z,96.57
2018-03-06T12:02:26.308Z,100.40
2018-03-06T12:04:54.682Z,112.20
2018-03-06T12:07:24.115Z,98.63
2018-03-06T12:09:54.588Z,99.03
2018-03-06T12:12:23.805Z,103.40
2018-03-06T12:14:52.159Z,92.80
2018-03-06T12:17:21.283Z,95.43
2018-03-06T12:19:50.508Z,93.53
2018-03-06T12:22:18.895Z,89.00
2018-03-06T12:24:47.263Z,102.00
2018-03-06T12:27:16.582Z,86.78
2018-03-06T12:29:44.961Z,93.53
2018-03-06T12:32:13.321Z,92.17
2018-03-06T12:34:42.433Z,83.03
2018-03-06T12:37:10.805Z,91.68
2018-03-06T12:39:39.194Z,93.57
2018-03-06T12:42:08.509Z,93.83
2018-03-06T12:44:36.854Z,88.60
2018-03-06T12:47:05.964Z,83.53
2018-03-06T12:49:36.012Z,87.27
2018-03-06T12:52:04.370Z,90.97
2018-03-06T12:54:32.751Z,97.30
2018-03-06T12:57:02.506Z,86.57
2018-03-06T12:59:30.912Z,74.53
2018-03-06T13:01:59.263Z,80.10
2018-03-06T13:04:28.134Z,82.00
2018-03-06T13:06:56.473Z,80.43
2018-03-06T13:09:24.855Z,77.72
2018-03-06T13:11:55.250Z,75.03
2018-03-06T13:14:23.624Z,79.67
2018-03-06T13:16:52.019Z,85.77
2018-03-06T13:19:21.227Z,75.03
2018-03-06T13:21:49.572Z,76.17
2018-03-06T13:24:17.947Z,74.07
2018-03-06T13:26:46.969Z,81.72
2018-03-06T13:29:15.325Z,76.73
2018-03-06T13:31:44.481Z,80.97
2018-03-06T13:34:13.273Z,80.43
2018-03-06T13:36:41.637Z,78.57
2018-03-06T13:39:10.034Z,80.80
2018-03-06T13:41:39.346Z,76.33
2018-03-06T13:44:07.746Z,84.40
2018-03-06T13:46:36.119Z,85.00
2018-03-06T13:49:04.903Z,79.07
2018-03-06T13:51:33.259Z,85.47
2018-03-06T13:54:01.685Z,80.70
2018-03-06T13:56:30.764Z,77.97
2018-03-06T13:58:59.126Z,74.70
2018-03-06T14:01:28.174Z,75.60
2018-03-06T14:03:57.589Z,76.33
2018-03-06T14:06:26.727Z,68.70
2018-03-06T14:08:55.124Z,85.20
2018-03-06T14:11:24.141Z,83.17
2018-03-06T14:13:54.577Z,79.63
2018-03-06T14:16:22.947Z,69.87
2018-03-06T14:18:51.725Z,73.07
2018-03-06T14:21:20.089Z,65.73
2018-03-06T14:23:48.472Z,67.90
2018-03-06T14:26:17.799Z,69.27
2018-03-06T14:28:46.184Z,57.87
2018-03-06T14:31:14.540Z,57.90
2018-03-06T14:33:43.583Z,63.72
2018-03-06T14:36:12.016Z,63.03
2018-03-06T14:38:40.510Z,59.00
2018-03-06T14:41:10.492Z,65.67
2018-03-06T14:43:39.038Z,55.10
2018-03-06T14:46:07.471Z,62.50
2018-03-06T14:48:37.877Z,55.67
2018-03-06T14:51:07.090Z,54.43
2018-03-06T14:53:35.487Z,53.53
2018-03-06T14:56:04.274Z,63.20
2018-03-06T14:58:32.764Z,59.30
2018-03-06T15:01:01.944Z,53.40
2018-03-06T15:03:30.955Z,54.90
2018-03-06T15:05:59.397Z,56.83
2018-03-06T15:08:27.805Z,53.90
2018-03-06T15:10:56.772Z,54.33
2018-03-06T15:13:25.169Z,46.37
2018-03-06T15:15:55.317Z,48.78
2018-03-06T15:18:24.056Z,49.30
2018-03-06T15:20:53.197Z,57.57
2018-03-06T15:23:21.585Z,56.65
2018-03-06T15:25:50.612Z,49.30
2018-03-06T15:28:19.071Z,53.25
2018-03-06T15:30:47.496Z,50.13
2018-03-06T15:33:17.463Z,53.15
2018-03-06T15:35:45.812Z,53.57
2018-03-06T15:38:15.240Z,46.53
2018-03-06T15:40:44.836Z,49.17
2018-03-06T15:43:13.636Z,52.20
2018-03-06T15:45:42.241Z,46.60
2018-03-06T15:48:11.316Z,55.67
2018-03-06T15:50:39.908Z,52.10
2018-03-06T15:53:08.491Z,52.77
2018-03-06T15:55:38.987Z,46.08
2018-03-06T15:58:07.848Z,53.47
2018-03-06T16:00:36.682Z,53.08
2018-03-06T16:03:06.743Z,50.80
2018-03-06T16:05:35.665Z,57.08
2018-03-06T16:08:04.687Z,51.37
2018-03-06T16:10:34.648Z,53.57
2018-03-06T16:13:03.694Z,58.47
2018-03-06T16:15:33.011Z,55.30
2018-03-06T16:18:08.679Z,53.53
2018-03-06T16:20:43.564Z,58.83
2018-03-06T16:23:13.906Z,57.88
2018-03-06T16:25:42.515Z,59.70
2018-03-06T16:28:11.325Z,60.75
2018-03-06T16:30:41.296Z,63.55
2018-03-06T16:33:09.867Z,58.42
2018-03-06T16:35:39.276Z,57.45
2018-03-06T16:38:08.250Z,65.10
2018-03-06T16:40:37.342Z,62.17
2018-03-06T16:43:06.308Z,58.08
2018-03-06T16:45:35.435Z,58.90
2018-03-06T16:48:04.374Z,58.60
2018-03-06T16:50:33.391Z,58.85
2018-03-06T16:53:04.130Z,62.97
2018-03-06T16:55:36.064Z,66.10
2018-03-06T16:58:07.130Z,61.40
2018-03-06T17:00:35.912Z,56.42
2018-03-06T17:03:04.810Z,74.22
2018-03-06T17:05:33.687Z,65.60
2018-03-06T17:08:03.323Z,68.72
2018-03-06T17:10:32.106Z,67.85
2018-03-06T17:13:03.077Z,71.37
2018-03-06T17:15:32.267Z,68.00
2018-03-06T17:18:01.064Z,64.43
2018-03-06T17:20:33.071Z,68.28
2018-03-06T17:23:01.944Z,71.35
2018-03-06T17:25:31.587Z,68.65
2018-03-06T17:28:00.899Z,69.72
2018-03-06T17:30:36.432Z,68.22
2018-03-06T17:33:05.570Z,71.25
2018-03-06T17:35:34.208Z,65.47
2018-03-06T17:38:03.010Z,64.20
2018-03-06T17:40:33.456Z,63.50
2018-03-06T17:43:02.314Z,62.97
2018-03-06T17:45:33.735Z,61.67
2018-03-06T17:48:04.752Z,60.95
2018-03-06T17:50:38.445Z,60.30
2018-03-06T17:53:09.531Z,55.97
2018-03-06T17:55:39.283Z,60.30
2018-03-06T17:58:08.252Z,55.97
2018-03-06T18:00:38.781Z,59.28
2018-03-06T18:03:07.425Z,54.38
2018-03-06T18:05:36.527Z,54.83
2018-03-06T18:10:49.410Z,57.03
2018-03-06T18:13:19.502Z,57.20
2018-03-06T18:15:48.931Z,50.20
2018-03-06T18:18:20.004Z,51.10
2018-03-06T18:20:48.472Z,56.37
2018-03-06T18:23:17.317Z,61.28
2018-03-06T18:25:46.801Z,51.17
2018-03-06T18:28:15.327Z,52.53
2018-03-06T18:30:43.910Z,56.58
2018-03-06T18:33:13.591Z,55.92
2018-03-06T18:35:42.150Z,58.50
2018-03-06T18:38:11.384Z,51.97
2018-03-06T18:40:41.321Z,50.15
2018-03-06T18:43:10.625Z,47.35
2018-03-06T18:45:41.910Z,44.45
2018-03-06T18:48:10.858Z,46.40
2018-03-06T18:50:52.220Z,47.25
2018-03-06T18:53:21.298Z,43.90
2018-03-06T18:55:50.515Z,49.10
2018-03-06T18:58:19.950Z,47.78
2018-03-06T19:01:01.231Z,46.75
2018-03-06T19:03:42.524Z,50.88
2018-03-06T19:06:23.088Z,50.92
2018-03-06T19:08:56.852Z,45.63
2018-03-06T19:11:26.360Z,50.85
2018-03-06T19:13:56.462Z,58.03
2018-03-06T19:16:26.049Z,51.40
2018-03-06T19:18:55.383Z,53.45
2018-03-06T19:21:25.002Z,43.33
2018-03-06T19:23:55.447Z,50.38
2018-03-06T19:26:24.768Z,52.58
2018-03-06T19:28:54.026Z,45.35
2018-03-06T19:31:23.844Z,45.92
2018-03-06T19:33:53.649Z,49.35
2018-03-06T19:36:22.185Z,49.28
2018-03-06T19:38:51.688Z,54.47
2018-03-06T19:41:22.225Z,51.90
2018-03-06T19:43:51.250Z,54.55
2018-03-06T19:46:19.673Z,50.15
2018-03-06T19:48:48.787Z,48.10
2018-03-06T19:51:17.423Z,47.67
2018-03-06T19:53:45.965Z,54.03
2018-03-06T19:56:15.550Z,54.22
2018-03-06T20:01:31.674Z,45.12
2018-03-06T20:04:01.990Z,48.63
2018-03-06T20:06:32.668Z,50.12
2018-03-06T20:09:01.414Z,45.22
2018-03-06T20:11:29.909Z,47.30
2018-03-06T20:13:59.222Z,48.70
2018-03-06T20:16:28.815Z,43.38
2018-03-06T20:19:04.894Z,50.20
2018-03-06T20:21:33.439Z,53.05
2018-03-06T20:24:08.731Z,42.20
2018-03-06T20:26:37.367Z,42.88
2018-03-06T20:29:05.876Z,46.50
2018-03-06T20:31:43.115Z,43.92
2018-03-06T20:34:13.331Z,48.75
2018-03-06T20:36:44.715Z,43.45
2018-03-06T20:39:18.943Z,48.53
2018-03-06T20:41:48.960Z,46.50
2018-03-06T20:44:19.100Z,45.75
2018-03-06T20:46:55.032Z,44.20
2018-03-06T20:49:23.703Z,43.47
2018-03-06T20:51:52.909Z,41.22
2018-03-06T20:54:28.726Z,43.55
2018-03-06T20:56:57.603Z,43.22
2018-03-06T20:59:26.307Z,42.05
2018-03-06T21:01:56.064Z,43.80
2018-03-06T21:04:24.928Z,44.50
2018-03-06T21:06:53.409Z,42.88
2018-03-06T21:09:22.841Z,37.88
2018-03-06T21:11:52.164Z,44.78
2018-03-06T21:14:20.753Z,43.10
2018-03-06T21:16:50.424Z,37.90
2018-03-06T21:19:20.065Z,43.53
2018-03-06T21:21:49.902Z,34.58
2018-03-06T21:24:19.642Z,39.80
2018-03-06T21:26:49.038Z,40.55
2018-03-06T21:29:17.666Z,36.38
2018-03-06T21:31:47.844Z,36.20
2018-03-06T21:34:16.381Z,42.10
2018-03-06T21:36:44.844Z,39.20
2018-03-06T21:39:13.638Z,41.00
2018-03-06T21:41:42.214Z,41.10
2018-03-06T21:44:11.493Z,40.88
2018-03-06T21:46:46.906Z,46.92
2018-03-06T21:49:15.658Z,48.20
2018-03-06T21:51:45.035Z,45.88
2018-03-06T21:54:13.691Z,40.25
2018-03-06T21:56:42.095Z,44.33
2018-03-06T21:59:10.947Z,43.28
2018-03-06T22:01:39.365Z,39.92
2018-03-06T22:04:07.774Z,45.72
2018-03-06T22:06:37.272Z,42.83
2018-03-06T22:09:05.709Z,45.47
2018-03-06T22:11:34.174Z,43.10
2018-03-06T22:14:04.193Z,42.90
2018-03-06T22:16:32.561Z,42.55
2018-03-06T22:19:00.922Z,43.08
2018-03-06T22:21:30.304Z,43.28
2018-03-06T22:23:59.585Z,43.03
2018-03-06T22:26:28.182Z,42.08
2018-03-06T22:28:57.321Z,42.17
2018-03-06T22:31:26.717Z,43.58
2018-03-06T22:33:55.240Z,47.10
2018-03-06T22:36:24.197Z,36.70
2018-03-06T22:38:53.034Z,39.58
2018-03-06T22:41:21.642Z,43.67
2018-03-06T22:43:50.095Z,33.53
2018-03-06T22:46:19.320Z,33.38
2018-03-06T22:48:47.745Z,30.00
2018-03-06T22:51:16.926Z,33.53
2018-03-06T22:53:46.463Z,32.78
2018-03-06T22:56:16.478Z,29.17
2018-03-06T22:58:45.327Z,28.02
2018-03-06T23:01:14.974Z,27.40
2018-03-06T23:03:43.425Z,31.92
2018-03-06T23:06:11.987Z,29.85
2018-03-06T23:08:41.469Z,27.48
2018-03-06T23:11:09.998Z,28.30
2018-03-06T23:13:38.497Z,26.70
2018-03-06T23:16:08.201Z,24.92
2018-03-06T23:18:36.592Z,26.08
2018-03-06T23:21:04.976Z,24.67
2018-03-06T23:23:35.838Z,27.25
2018-03-06T23:26:04.273Z,29.05
2018-03-06T23:28:32.712Z,24.60
2018-03-06T23:31:01.821Z,23.15
2018-03-06T23:33:30.319Z,23.50
2018-03-06T23:35:59.446Z,20.75
2018-03-06T23:38:28.612Z,21.60
2018-03-06T23:40:56.985Z,21.25
2018-03-06T23:43:25.506Z,19.00
2018-03-06T23:45:54.752Z,18.65
2018-03-06T23:48:23.117Z,19.10
2018-03-06T23:50:51.972Z,17.48
2018-03-06T23:53:21.448Z,16.60
2018-03-06T23:55:50.623Z,17.17
2018-03-06T23:58:19.022Z,14.43
